createdAt,value
2019-03-04T00:00:18.016Z,66.55
2019-03-04T00:03:03.539Z,66.52
2019-03-04T00:05:34.295Z,66.24
2019-03-04T00:08:05.055Z,66.58
2019-03-04T00:10:35.773Z,66.53
2019-03-04T00:13:06.506Z,66.13
2019-03-04T00:15:45.061Z,65.89
2019-03-04T00:18:15.877Z,66.11
2019-03-04T00:20:47.579Z,66.45
2019-03-04T00:23:19.270Z,66.08
2019-03-04T00:25:51.809Z,65.93
2019-03-04T00:28:22.370Z,65.60
2019-03-04T00:31:11.004Z,65.65
2019-03-04T00:33:59.650Z,65.24
2019-03-04T00:36:30.407Z,65.67
2019-03-04T00:39:09.172Z,65.30
2019-03-04T00:41:52.334Z,65.18
2019-03-04T00:44:32.137Z,64.96
2019-03-04T00:47:02.800Z,64.93
2019-03-04T00:49:33.450Z,64.77
2019-03-04T00:52:08.655Z,64.79
2019-03-04T00:54:39.264Z,64.52
2019-03-04T00:57:20.984Z,64.76
2019-03-04T00:59:51.578Z,64.35
2019-03-04T01:02:23.228Z,63.94
2019-03-04T01:04:57.716Z,64.04
2019-03-04T01:07:41.239Z,64.18
2019-03-04T01:10:12.660Z,63.86
2019-03-04T01:12:43.369Z,64.05
2019-03-04T01:15:22.390Z,63.99
2019-03-04T01:17:52.850Z,63.73
2019-03-04T01:20:27.090Z,64.37
2019-03-04T01:22:57.803Z,63.85
2019-03-04T01:25:30.379Z,63.03
2019-03-04T01:28:01.093Z,63.11
2019-03-04T01:30:32.800Z,63.23
2019-03-04T01:33:09.248Z,62.54
2019-03-04T01:35:39.978Z,62.36
2019-03-04T01:38:11.634Z,62.48
2019-03-04T01:40:42.298Z,62.08
2019-03-04T01:43:13.925Z,62.48
2019-03-04T01:45:44.559Z,62.52
2019-03-04T01:48:15.158Z,62.31
2019-03-04T01:50:53.503Z,62.54
2019-03-04T01:53:24.132Z,62.11
2019-03-04T01:56:01.392Z,62.20
2019-03-04T01:58:32.112Z,62.35
2019-03-04T02:01:08.515Z,62.51
2019-03-04T02:03:39.186Z,62.32
2019-03-04T02:06:09.853Z,62.60
2019-03-04T02:08:41.607Z,62.85
2019-03-04T02:11:12.415Z,63.02
2019-03-04T02:13:43.043Z,63.40
2019-03-04T02:16:13.750Z,63.91
2019-03-04T02:18:45.406Z,64.40
2019-03-04T02:21:16.029Z,63.85
2019-03-04T02:23:46.677Z,63.91
2019-03-04T02:26:23.610Z,63.81
2019-03-04T02:28:54.212Z,64.26
2019-03-04T02:31:24.871Z,64.12
2019-03-04T02:33:55.452Z,64.39
2019-03-04T02:36:26.106Z,64.50
2019-03-04T02:38:56.678Z,64.38
2019-03-04T02:41:27.322Z,64.17
2019-03-04T02:43:57.945Z,63.77
2019-03-04T02:46:30.530Z,63.99
2019-03-04T02:49:01.156Z,63.66
2019-03-04T02:51:35.073Z,63.32
2019-03-04T02:54:05.896Z,63.45
2019-03-04T02:56:44.555Z,62.43
2019-03-04T02:59:15.056Z,62.47
2019-03-04T03:01:45.675Z,62.38
2019-03-04T03:04:16.247Z,62.59
2019-03-04T03:06:49.177Z,62.18
2019-03-04T03:09:19.769Z,61.57
2019-03-04T03:11:50.298Z,61.80
2019-03-04T03:14:20.987Z,61.97
2019-03-04T03:16:51.644Z,61.70
2019-03-04T03:19:22.276Z,61.26
2019-03-04T03:21:53.014Z,61.10
2019-03-04T03:24:23.629Z,60.20
2019-03-04T03:26:54.260Z,59.98
2019-03-04T03:29:25.012Z,60.15
2019-03-04T03:31:55.582Z,59.99
2019-03-04T03:34:26.274Z,59.89
2019-03-04T03:36:56.806Z,58.59
2019-03-04T03:39:27.504Z,58.78
2019-03-04T03:42:02.567Z,57.62
2019-03-04T03:44:33.274Z,56.46
2019-03-04T03:47:07.401Z,56.45
2019-03-04T03:49:39.063Z,56.01
2019-03-04T03:52:09.732Z,55.72
2019-03-04T03:54:42.377Z,56.12
2019-03-04T03:57:24.581Z,56.15
2019-03-04T03:59:55.306Z,56.17
2019-03-04T04:02:25.941Z,56.38
2019-03-04T04:04:56.537Z,56.39
2019-03-04T04:07:33.322Z,57.00
2019-03-04T04:10:10.851Z,57.01
2019-03-04T04:12:41.556Z,56.83
2019-03-04T04:15:14.956Z,56.90
2019-03-04T04:17:49.600Z,56.37
2019-03-04T04:20:20.289Z,57.05
2019-03-04T04:22:50.870Z,57.02
2019-03-04T04:25:33.550Z,56.70
2019-03-04T04:28:11.374Z,56.77
2019-03-04T04:30:41.994Z,55.96
2019-03-04T04:33:12.552Z,55.56
2019-03-04T04:35:43.192Z,55.27
2019-03-04T04:38:19.360Z,54.95
2019-03-04T04:41:08.601Z,54.53
2019-03-04T04:43:39.325Z,53.88
2019-03-04T04:46:10.048Z,53.32
2019-03-04T04:48:42.897Z,53.27
2019-03-04T04:51:14.578Z,53.43
2019-03-04T04:53:45.254Z,53.94
2019-03-04T04:56:16.495Z,53.21
2019-03-04T04:58:47.225Z,53.41
2019-03-04T05:01:17.852Z,53.31
2019-03-04T05:03:48.583Z,53.11
2019-03-04T05:06:19.217Z,52.54
2019-03-04T05:08:53.903Z,52.57
2019-03-04T05:11:25.608Z,52.73
2019-03-04T05:13:56.224Z,52.33
2019-03-04T05:16:26.888Z,52.61
2019-03-04T05:18:57.450Z,52.55
2019-03-04T05:21:32.452Z,53.03
2019-03-04T05:24:03.125Z,52.80
2019-03-04T05:26:33.795Z,53.04
2019-03-04T05:29:04.412Z,53.04
2019-03-04T05:31:35.141Z,52.95
2019-03-04T05:34:05.786Z,53.06
2019-03-04T05:36:36.404Z,53.27
2019-03-04T05:39:07.752Z,52.95
2019-03-04T05:41:45.284Z,52.55
2019-03-04T05:44:34.584Z,52.95
2019-03-04T05:47:06.196Z,52.98
2019-03-04T05:49:36.859Z,53.46
2019-03-04T05:52:07.596Z,54.40
2019-03-04T05:54:40.476Z,54.54
2019-03-04T05:57:11.494Z,55.08
2019-03-04T05:59:42.204Z,56.80
2019-03-04T06:02:12.913Z,58.48
2019-03-04T06:04:45.722Z,60.88
2019-03-04T06:07:17.967Z,65.12
2019-03-04T06:09:49.455Z,67.34
2019-03-04T06:12:20.098Z,70.25
2019-03-04T06:14:50.793Z,73.83
2019-03-04T06:17:23.410Z,73.06
2019-03-04T06:19:54.007Z,74.13
2019-03-04T06:22:24.709Z,75.26
2019-03-04T06:24:55.303Z,74.95
2019-03-04T06:27:25.959Z,72.56
2019-03-04T06:29:57.562Z,72.31
2019-03-04T06:32:30.500Z,74.06
2019-03-04T06:35:01.087Z,74.23
2019-03-04T06:37:31.723Z,73.84
2019-03-04T06:40:10.440Z,73.46
2019-03-04T06:42:41.149Z,71.07
2019-03-04T06:45:13.558Z,71.52
2019-03-04T06:47:44.261Z,70.71
2019-03-04T06:50:53.215Z,70.16
2019-03-04T06:53:48.484Z,70.25
2019-03-04T06:56:29.498Z,70.52
2019-03-04T06:59:08.279Z,68.83
2019-03-04T07:01:48.484Z,69.32
2019-03-04T07:04:34.207Z,69.31
2019-03-04T07:07:05.383Z,68.45
2019-03-04T07:09:48.085Z,68.87
2019-03-04T07:12:19.779Z,68.94
2019-03-04T07:15:06.175Z,70.18
2019-03-04T07:17:37.838Z,69.17
2019-03-04T07:20:11.241Z,68.95
2019-03-04T07:22:41.822Z,68.84
2019-03-04T07:25:18.985Z,68.41
2019-03-04T07:28:05.744Z,68.58
2019-03-04T07:30:37.526Z,69.07
2019-03-04T07:33:08.211Z,67.98
2019-03-04T07:35:45.332Z,69.32
2019-03-04T07:38:53.172Z,69.20
2019-03-04T07:41:23.887Z,67.18
2019-03-04T07:43:54.581Z,66.09
2019-03-04T07:46:25.250Z,66.63
2019-03-04T07:48:56.965Z,65.39
2019-03-04T07:51:53.858Z,64.32
2019-03-04T07:54:24.480Z,66.18
2019-03-04T07:56:55.147Z,67.55
2019-03-04T07:59:25.836Z,67.75
2019-03-04T08:01:56.526Z,67.70
2019-03-04T08:04:32.046Z,67.19
2019-03-04T08:07:35.394Z,66.74
2019-03-04T08:10:58.372Z,66.77
2019-03-04T08:13:41.547Z,66.68
2019-03-04T08:16:16.318Z,65.74
2019-03-04T08:18:47.015Z,66.24
2019-03-04T08:21:27.337Z,65.78
2019-03-04T08:23:57.968Z,65.32
2019-03-04T08:26:28.593Z,64.20
2019-03-04T08:28:59.300Z,63.25
2019-03-04T08:31:30.018Z,63.04
2019-03-04T08:34:17.968Z,61.37
2019-03-04T08:36:48.636Z,59.39
2019-03-04T08:39:19.264Z,58.20
2019-03-04T08:41:49.823Z,57.25
2019-03-04T08:44:21.528Z,57.22
2019-03-04T08:46:52.264Z,55.53
2019-03-04T08:49:22.846Z,55.26
2019-03-04T08:51:53.425Z,54.67
2019-03-04T08:54:24.071Z,53.30
2019-03-04T08:57:03.615Z,53.38
2019-03-04T08:59:27.093Z,53.84
2019-03-04T09:01:57.794Z,54.82
2019-03-04T09:04:34.903Z,54.28
2019-03-04T09:07:05.637Z,54.50
2019-03-04T09:09:36.396Z,54.92
2019-03-04T09:12:07.016Z,55.17
2019-03-04T09:14:37.685Z,55.51
2019-03-04T09:17:13.450Z,55.72
2019-03-04T09:19:49.787Z,55.78
2019-03-04T09:22:20.572Z,55.45
2019-03-04T09:24:51.305Z,55.94
2019-03-04T09:27:27.881Z,54.64
2019-03-04T09:29:58.559Z,55.70
2019-03-04T09:32:30.143Z,56.91
2019-03-04T09:35:00.833Z,57.44
2019-03-04T09:37:31.509Z,59.09
2019-03-04T09:40:12.732Z,62.00
2019-03-04T09:42:43.488Z,64.52
2019-03-04T09:45:14.438Z,65.59
2019-03-04T09:47:48.463Z,66.12
2019-03-04T09:50:21.364Z,64.78
2019-03-04T09:52:52.528Z,66.69
2019-03-04T09:55:35.137Z,68.38
2019-03-04T09:58:05.756Z,68.40
2019-03-04T10:01:16.605Z,67.46
2019-03-04T10:04:15.165Z,67.58
2019-03-04T10:07:19.067Z,68.47
2019-03-04T10:10:37.017Z,69.47
2019-03-04T10:14:09.895Z,67.11
2019-03-04T10:17:08.163Z,67.00
2019-03-04T10:19:48.898Z,66.86
2019-03-04T10:22:40.054Z,65.66
2019-03-04T10:25:35.740Z,67.20
2019-03-04T10:28:27.011Z,65.96
2019-03-04T10:31:23.223Z,64.90
2019-03-04T10:34:32.010Z,65.11
2019-03-04T10:37:46.540Z,66.10
2019-03-04T10:41:13.156Z,64.45
2019-03-04T10:44:37.923Z,65.16
2019-03-04T10:47:16.047Z,63.86
2019-03-04T10:49:54.677Z,63.99
2019-03-04T10:52:25.302Z,64.86
2019-03-04T10:54:55.924Z,63.66
2019-03-04T10:57:42.784Z,65.48
2019-03-04T11:00:16.139Z,67.19
2019-03-04T11:02:46.751Z,70.06
2019-03-04T11:05:33.056Z,74.52
2019-03-04T11:08:04.741Z,73.39
2019-03-04T11:10:36.373Z,72.54
2019-03-04T11:13:09.041Z,74.37
2019-03-04T11:15:39.669Z,76.12
2019-03-04T11:18:16.483Z,75.54
2019-03-04T11:20:47.200Z,74.95
2019-03-04T11:23:17.950Z,76.30
2019-03-04T11:25:56.332Z,76.82
2019-03-04T11:28:27.113Z,76.15
2019-03-04T11:30:57.753Z,75.96
2019-03-04T11:33:40.622Z,77.99
2019-03-04T11:36:16.546Z,77.42
2019-03-04T11:38:55.411Z,76.48
2019-03-04T11:41:26.070Z,77.19
2019-03-04T11:43:56.751Z,74.51
2019-03-04T11:46:29.484Z,73.74
2019-03-04T11:49:00.175Z,74.38
2019-03-04T11:51:30.901Z,74.90
2019-03-04T11:54:03.624Z,75.27
2019-03-04T11:56:34.257Z,74.60
2019-03-04T11:59:05.144Z,75.04
2019-03-04T12:01:37.461Z,72.42
2019-03-04T12:04:08.054Z,72.62
2019-03-04T12:06:44.658Z,72.68
2019-03-04T12:09:16.045Z,74.51
2019-03-04T12:11:46.751Z,72.12
2019-03-04T12:14:18.369Z,71.98
2019-03-04T12:16:49.112Z,73.05
2019-03-04T12:19:28.763Z,72.67
2019-03-04T12:22:00.945Z,71.76
2019-03-04T12:24:31.753Z,71.88
2019-03-04T12:27:02.535Z,71.52
2019-03-04T12:29:39.139Z,70.72
2019-03-04T12:32:17.985Z,71.03
2019-03-04T12:34:48.723Z,71.28
2019-03-04T12:37:30.352Z,70.69
2019-03-04T12:40:25.079Z,70.90
2019-03-04T12:42:58.964Z,70.96
2019-03-04T12:45:34.468Z,70.78
2019-03-04T12:48:03.077Z,69.39
2019-03-04T12:50:33.864Z,67.90
2019-03-04T12:53:04.650Z,68.76
2019-03-04T12:55:35.284Z,69.39
2019-03-04T12:58:05.955Z,69.94
2019-03-04T13:00:51.751Z,68.45
2019-03-04T13:03:28.287Z,69.47
2019-03-04T13:06:01.036Z,68.96
2019-03-04T13:08:31.695Z,68.81
2019-03-04T13:11:02.392Z,69.82
2019-03-04T13:13:32.957Z,69.41
2019-03-04T13:16:03.810Z,69.06
2019-03-04T13:18:34.707Z,67.27
2019-03-04T13:21:05.414Z,68.18
2019-03-04T13:23:38.105Z,68.79
2019-03-04T13:26:09.820Z,68.17
2019-03-04T13:28:51.385Z,67.36
2019-03-04T13:31:24.081Z,68.50
2019-03-04T13:33:54.783Z,68.03
2019-03-04T13:36:25.472Z,67.94
2019-03-04T13:38:57.068Z,69.09
2019-03-04T13:41:27.712Z,68.54
2019-03-04T13:43:58.328Z,67.35
2019-03-04T13:46:29.096Z,66.84
2019-03-04T13:48:59.671Z,67.01
2019-03-04T13:51:30.508Z,66.06
2019-03-04T13:54:02.216Z,66.64
2019-03-04T13:56:33.948Z,65.41
2019-03-04T13:59:04.668Z,65.41
2019-03-04T14:01:44.870Z,63.82
2019-03-04T14:04:33.800Z,63.41
2019-03-04T14:07:22.506Z,61.73
2019-03-04T14:09:55.231Z,60.93
2019-03-04T14:12:26.191Z,59.68
2019-03-04T14:14:56.776Z,58.48
2019-03-04T14:17:29.568Z,59.05
2019-03-04T14:20:00.276Z,58.12
2019-03-04T14:22:57.299Z,58.16
2019-03-04T14:25:26.299Z,59.08
2019-03-04T14:27:58.130Z,59.05
2019-03-04T14:30:28.781Z,58.05
2019-03-04T14:32:59.474Z,56.98
2019-03-04T14:35:31.124Z,56.48
2019-03-04T14:38:01.886Z,55.80
2019-03-04T14:40:32.605Z,55.15
2019-03-04T14:43:03.338Z,51.33
2019-03-04T14:45:37.922Z,49.68
2019-03-04T14:48:09.642Z,50.54
2019-03-04T14:50:42.398Z,49.08
2019-03-04T14:53:13.038Z,48.60
2019-03-04T14:55:51.249Z,49.48
2019-03-04T14:58:21.970Z,49.03
2019-03-04T15:00:54.666Z,52.48
2019-03-04T15:03:39.748Z,48.59
2019-03-04T15:06:10.459Z,48.59
2019-03-04T15:08:45.373Z,50.03
2019-03-04T15:11:16.956Z,49.80
2019-03-04T15:13:47.588Z,48.96
2019-03-04T15:16:18.424Z,49.44
2019-03-04T15:18:49.350Z,48.88
2019-03-04T15:21:35.605Z,49.17
2019-03-04T15:24:06.343Z,49.70
2019-03-04T15:26:45.998Z,49.79
2019-03-04T15:29:16.667Z,50.15
2019-03-04T15:31:47.362Z,50.34
2019-03-04T15:34:28.636Z,50.30
2019-03-04T15:36:59.288Z,50.89
2019-03-04T15:39:32.016Z,49.67
2019-03-04T15:42:15.797Z,49.12
2019-03-04T15:45:00.684Z,48.77
2019-03-04T15:47:31.453Z,49.62
2019-03-04T15:50:02.157Z,48.81
2019-03-04T15:52:36.484Z,48.17
2019-03-04T15:55:14.173Z,46.85
2019-03-04T15:57:46.039Z,48.07
2019-03-04T16:00:17.270Z,48.53
2019-03-04T16:02:54.575Z,48.84
2019-03-04T16:05:26.339Z,48.78
2019-03-04T16:08:06.778Z,47.52
2019-03-04T16:10:38.370Z,46.95
2019-03-04T16:13:09.142Z,48.05
2019-03-04T16:15:41.147Z,46.66
2019-03-04T16:18:11.944Z,46.49
2019-03-04T16:20:42.780Z,46.92
2019-03-04T16:23:13.598Z,47.08
2019-03-04T16:25:47.606Z,46.44
2019-03-04T16:28:20.890Z,46.14
2019-03-04T16:30:51.875Z,47.36
2019-03-04T16:33:27.590Z,47.26
2019-03-04T16:35:58.317Z,46.83
2019-03-04T16:38:29.003Z,47.38
2019-03-04T16:41:01.004Z,48.02
2019-03-04T16:43:31.600Z,47.04
2019-03-04T16:46:11.556Z,47.40
2019-03-04T16:48:44.258Z,47.12
2019-03-04T16:51:15.890Z,47.00
2019-03-04T16:53:46.609Z,46.37
2019-03-04T16:56:17.560Z,46.47
2019-03-04T16:58:53.425Z,47.22
2019-03-04T17:01:27.317Z,47.05
2019-03-04T17:03:58.003Z,47.03
2019-03-04T17:06:28.707Z,47.37
2019-03-04T17:08:59.337Z,47.88
2019-03-04T17:11:30.998Z,48.71
2019-03-04T17:14:01.731Z,48.94
2019-03-04T17:16:50.846Z,49.51
2019-03-04T17:19:21.518Z,49.42
2019-03-04T17:22:02.258Z,49.35
2019-03-04T17:24:38.319Z,50.19
2019-03-04T17:27:12.573Z,49.70
2019-03-04T17:29:43.195Z,49.80
2019-03-04T17:32:14.993Z,51.62
2019-03-04T17:34:51.826Z,49.50
2019-03-04T17:37:23.538Z,50.53
2019-03-04T17:40:01.571Z,51.31
2019-03-04T17:42:47.026Z,51.10
2019-03-04T17:45:29.319Z,50.96
2019-03-04T17:48:06.354Z,50.66
2019-03-04T17:50:37.338Z,50.91
2019-03-04T17:53:08.273Z,50.94
2019-03-04T17:55:43.269Z,50.99
2019-03-04T17:58:14.235Z,50.53
2019-03-04T18:00:55.703Z,51.75
2019-03-04T18:03:32.362Z,51.05
2019-03-04T18:06:06.121Z,50.85
2019-03-04T18:08:38.792Z,51.54
2019-03-04T18:11:09.397Z,51.02
2019-03-04T18:13:40.183Z,51.92
2019-03-04T18:16:14.192Z,51.89
2019-03-04T18:18:44.873Z,50.95
2019-03-04T18:21:19.323Z,51.57
2019-03-04T18:23:50.078Z,51.24
2019-03-04T18:26:37.710Z,51.41
2019-03-04T18:29:27.161Z,51.10
2019-03-04T18:32:19.128Z,51.75
2019-03-04T18:35:13.384Z,51.54
2019-03-04T18:38:10.969Z,51.08
2019-03-04T18:40:53.632Z,51.94
2019-03-04T18:44:16.333Z,52.44
2019-03-04T18:47:26.467Z,52.68
2019-03-04T18:49:57.268Z,52.24
2019-03-04T18:52:31.973Z,53.23
2019-03-04T18:55:03.670Z,53.16
2019-03-04T18:57:37.414Z,53.22
2019-03-04T19:00:13.279Z,53.19
2019-03-04T19:02:44.514Z,53.02
2019-03-04T19:05:16.485Z,53.07
2019-03-04T19:07:53.480Z,54.08
2019-03-04T19:10:34.360Z,54.41
2019-03-04T19:13:06.135Z,53.95
2019-03-04T19:15:37.859Z,54.42
2019-03-04T19:18:08.726Z,56.39
2019-03-04T19:20:39.478Z,55.04
2019-03-04T19:23:23.733Z,55.31
2019-03-04T19:26:01.652Z,55.28
2019-03-04T19:28:41.562Z,55.95
2019-03-04T19:31:13.209Z,55.69
2019-03-04T19:33:53.574Z,55.98
2019-03-04T19:36:25.830Z,56.42
2019-03-04T19:38:59.205Z,57.12
2019-03-04T19:41:30.030Z,57.24
2019-03-04T19:44:00.822Z,57.08
2019-03-04T19:46:31.958Z,57.78
2019-03-04T19:49:02.747Z,56.97
2019-03-04T19:51:35.374Z,57.18
2019-03-04T19:54:06.405Z,57.87
2019-03-04T19:56:40.595Z,57.88
2019-03-04T19:59:11.421Z,58.20
2019-03-04T20:01:44.244Z,58.78
2019-03-04T20:04:19.516Z,58.93
2019-03-04T20:06:51.345Z,58.78
2019-03-04T20:09:22.004Z,58.95
2019-03-04T20:11:58.048Z,59.18
2019-03-04T20:14:33.339Z,58.94
2019-03-04T20:17:04.367Z,59.57
2019-03-04T20:19:37.441Z,59.69
2019-03-04T20:22:26.126Z,59.91
2019-03-04T20:24:57.004Z,60.10
2019-03-04T20:27:27.865Z,60.74
2019-03-04T20:29:58.633Z,60.71
2019-03-04T20:32:31.657Z,60.93
2019-03-04T20:35:02.315Z,60.29
2019-03-04T20:37:33.783Z,60.56
2019-03-04T20:40:04.959Z,60.52
2019-03-04T20:42:36.269Z,61.17
2019-03-04T20:45:08.772Z,61.08
2019-03-04T20:47:43.123Z,61.14
2019-03-04T20:50:17.371Z,61.20
2019-03-04T20:52:54.665Z,60.66
2019-03-04T20:55:27.574Z,61.16
2019-03-04T20:57:58.458Z,61.40
2019-03-04T21:00:36.018Z,61.95
2019-03-04T21:03:10.501Z,64.26
2019-03-04T21:05:41.611Z,67.47
2019-03-04T21:08:24.113Z,71.18
2019-03-04T21:10:55.257Z,72.19
2019-03-04T21:13:36.131Z,74.80
2019-03-04T21:16:07.179Z,73.79
2019-03-04T21:18:37.993Z,73.86
2019-03-04T21:21:12.553Z,74.70
2019-03-04T21:23:43.232Z,74.45
2019-03-04T21:26:22.787Z,73.71
2019-03-04T21:29:31.566Z,73.13
2019-03-04T21:32:31.700Z,73.22
2019-03-04T21:35:31.492Z,73.17
2019-03-04T21:38:02.451Z,74.29
2019-03-04T21:40:44.399Z,74.37
2019-03-04T21:43:26.355Z,74.39
2019-03-04T21:46:37.173Z,74.37
2019-03-04T21:49:10.224Z,74.67
2019-03-04T21:52:20.196Z,75.80
2019-03-04T21:54:49.338Z,75.20
2019-03-04T21:57:39.214Z,76.49
2019-03-04T22:00:33.520Z,76.28
2019-03-04T22:03:18.088Z,76.83
2019-03-04T22:05:52.996Z,76.58
2019-03-04T22:08:52.096Z,76.09
2019-03-04T22:11:22.909Z,75.90
2019-03-04T22:13:54.597Z,76.23
2019-03-04T22:16:28.611Z,76.34
2019-03-04T22:19:06.409Z,75.59
2019-03-04T22:21:40.934Z,76.02
2019-03-04T22:24:11.654Z,75.52
2019-03-04T22:26:42.652Z,75.88
2019-03-04T22:29:23.642Z,76.00
2019-03-04T22:32:00.529Z,75.69
2019-03-04T22:34:52.025Z,75.64
2019-03-04T22:37:22.686Z,75.63
2019-03-04T22:40:07.519Z,75.70
2019-03-04T22:42:38.261Z,75.08
2019-03-04T22:45:12.099Z,75.46
2019-03-04T22:47:43.081Z,75.39
2019-03-04T22:50:33.959Z,74.96
2019-03-04T22:53:06.824Z,74.63
2019-03-04T22:55:50.916Z,75.33
2019-03-04T22:58:28.882Z,74.64
2019-03-04T23:01:35.754Z,74.35
2019-03-04T23:04:20.931Z,73.82
2019-03-04T23:07:01.394Z,73.40
2019-03-04T23:10:10.258Z,74.00
2019-03-04T23:13:02.719Z,73.86
2019-03-04T23:15:35.748Z,73.31
2019-03-04T23:18:21.018Z,72.58
2019-03-04T23:21:18.034Z,71.87
2019-03-04T23:23:48.776Z,72.72
2019-03-04T23:26:20.682Z,71.23
2019-03-04T23:28:51.486Z,70.98
2019-03-04T23:31:23.170Z,70.88
2019-03-04T23:33:53.893Z,71.02
2019-03-04T23:36:26.455Z,70.84
2019-03-04T23:38:58.044Z,70.92
2019-03-04T23:41:28.689Z,71.00
2019-03-04T23:43:59.268Z,70.35
2019-03-04T23:46:35.494Z,69.88
2019-03-04T23:49:06.087Z,70.32
2019-03-04T23:51:37.778Z,70.01
2019-03-04T23:54:08.391Z,69.80
2019-03-04T23:56:39.225Z,70.52
2019-03-04T23:59:09.761Z,69.09
